Time;durP1;ratioP1;P1;durP2;ratioP2;P2;SDS_P1;SDS_P2;PMS_P1;PMS_P2;Temp;Humidity;BMP_temperature;BMP_pressure;BME280_temperature;BME280_humidity;BME280_pressure;Samples;Min_cycle;Max_cycle;Signal;HPM_P1;HPM_P2
2022/12/27 00:00:21;;;;;;;20.35;13.75;;;;;;;10.53;68.76;101414.56;4974442;28;20482;-87
2022/12/27 00:02:46;;;;;;;21.75;14.10;;;;;;;10.58;68.25;101416.97;4975007;28;20031;-88
2022/12/27 00:05:12;;;;;;;20.23;12.52;;;;;;;10.68;67.91;101429.66;4982632;28;20038;-89
2022/12/27 00:07:37;;;;;;;21.50;12.77;;;;;;;10.75;67.78;101425.59;4981516;28;20039;-89
2022/12/27 00:10:05;;;;;;;21.33;11.60;;;;;;;10.76;67.56;101432.66;5001722;28;20039;-89
2022/12/27 00:12:30;;;;;;;25.40;10.65;;;;;;;10.78;67.09;101417.28;4988678;28;20065;-90
2022/12/27 00:14:56;;;;;;;19.90;12.32;;;;;;;10.85;66.69;101426.69;4988189;28;20501;-87
2022/12/27 00:17:21;;;;;;;21.30;10.60;;;;;;;10.84;66.81;101413.31;4983366;28;20386;-88
2022/12/27 00:19:47;;;;;;;19.85;10.77;;;;;;;10.86;67.00;101423.00;4963257;28;20030;-89
2022/12/27 00:22:12;;;;;;;17.92;11.27;;;;;;;10.81;67.09;101414.38;4980443;28;20058;-88
2022/12/27 00:24:38;;;;;;;20.35;10.90;;;;;;;10.88;66.90;101423.78;4963004;28;20482;-88
2022/12/27 00:27:03;;;;;;;19.58;11.43;;;;;;;10.89;66.78;101411.16;4992492;28;20501;-89
2022/12/27 00:29:29;;;;;;;22.90;11.10;;;;;;;10.91;66.57;101415.47;4980662;28;20114;-88
2022/12/27 00:31:54;;;;;;;21.55;11.40;;;;;;;10.87;66.47;101405.88;4963371;28;20037;-88
2022/12/27 00:34:19;;;;;;;21.00;10.50;;;;;;;10.93;66.25;101409.97;4979296;28;20406;-89
2022/12/27 00:36:45;;;;;;;26.80;11.05;;;;;;;10.91;65.77;101412.78;4979342;28;20039;-89
2022/12/27 00:39:11;;;;;;;16.48;10.73;;;;;;;10.91;65.75;101411.94;4979762;28;20498;-88
2022/12/27 00:41:36;;;;;;;23.15;11.45;;;;;;;10.89;66.27;101403.94;4979913;28;20140;-88
2022/12/27 00:44:01;;;;;;;17.75;11.93;;;;;;;10.88;66.41;101399.53;4962314;28;20026;-88
2022/12/27 00:46:27;;;;;;;23.23;11.18;;;;;;;10.95;66.16;101391.03;4980496;28;20050;-88
2022/12/27 00:48:54;;;;;;;20.17;11.18;;;;;;;11.10;65.78;101406.09;4963400;28;20027;-88
2022/12/27 00:51:23;;;;;;;31.58;12.32;;;;;;;11.03;65.71;101392.22;4981234;28;20038;-89
2022/12/27 00:53:49;;;;;;;19.17;10.57;;;;;;;11.15;65.30;101396.72;4979753;28;20034;-88
2022/12/27 00:56:18;;;;;;;22.15;11.73;;;;;;;11.23;65.18;101393.47;4978785;28;20859;-87
2022/12/27 00:58:43;;;;;;;29.42;14.48;;;;;;;11.11;65.08;101367.41;4979272;28;20501;-87
2022/12/27 01:01:18;;;;;;;17.85;10.70;;;;;;;11.12;65.02;101371.84;4978649;28;20066;-87
2022/12/27 01:03:44;;;;;;;18.77;10.27;;;;;;;11.15;64.91;101379.69;4979867;28;20054;-89
2022/12/27 01:06:16;;;;;;;24.40;11.88;;;;;;;11.22;64.77;101379.13;4980311;28;20031;-88
2022/12/27 01:08:42;;;;;;;22.83;11.00;;;;;;;11.29;64.74;101382.25;4981008;28;20027;-88
2022/12/27 01:11:09;;;;;;;20.63;11.57;;;;;;;11.20;64.72;101366.75;4994444;28;20103;-88
2022/12/27 01:13:35;;;;;;;17.48;10.32;;;;;;;11.22;64.05;101375.59;4997415;28;20125;-88
2022/12/27 01:16:07;;;;;;;25.95;10.85;;;;;;;11.24;64.03;101374.50;4988432;28;20525;-89
2022/12/27 01:18:32;;;;;;;20.90;11.73;;;;;;;11.21;64.06;101360.41;4976726;28;20450;-87
2022/12/27 01:20:58;;;;;;;19.48;11.38;;;;;;;11.27;64.08;101377.00;4959216;28;20038;-88
2022/12/27 01:23:24;;;;;;;36.10;11.35;;;;;;;11.31;64.05;101364.16;4978264;28;20472;-87
2022/12/27 01:25:58;;;;;;;30.25;12.40;;;;;;;11.23;63.82;101351.25;4964343;28;20041;-87
2022/12/27 01:28:24;;;;;;;20.17;11.77;;;;;;;11.31;64.01;101367.69;4975933;28;20102;-88
2022/12/27 01:30:49;;;;;;;15.65;10.73;;;;;;;11.26;64.05;101353.72;4975260;28;20037;-88
2022/12/27 01:33:14;;;;;;;22.17;12.45;;;;;;;11.19;63.72;101338.13;4976687;28;20037;-87
2022/12/27 01:35:40;;;;;;;17.83;11.43;;;;;;;11.21;64.06;101345.13;4986650;28;20066;-88
2022/12/27 01:38:05;;;;;;;23.00;12.32;;;;;;;11.34;63.50;101356.69;4982208;28;20320;-87
2022/12/27 01:40:31;;;;;;;21.27;11.27;;;;;;;11.31;63.42;101342.63;4979663;28;20413;-87
2022/12/27 01:42:56;;;;;;;19.70;11.63;;;;;;;11.23;63.36;101337.78;4959404;28;20061;-89
2022/12/27 01:45:23;;;;;;;23.08;11.88;;;;;;;11.29;63.44;101352.63;4977588;28;20051;-88
2022/12/27 01:47:58;;;;;;;19.75;11.55;;;;;;;11.32;63.07;101355.09;4977857;28;20031;-88
2022/12/27 01:50:30;;;;;;;25.50;12.23;;;;;;;11.29;62.89;101344.53;4976953;28;20039;-89
2022/12/27 01:52:56;;;;;;;24.40;12.60;;;;;;;11.36;63.08;101345.81;4977544;28;20019;-89
2022/12/27 01:55:30;;;;;;;23.55;12.43;;;;;;;11.33;62.89;101351.44;4959872;28;20039;-90
2022/12/27 01:58:05;;;;;;;23.42;11.90;;;;;;;11.28;63.11;101348.22;4976564;28;20031;-88
2022/12/27 02:00:31;;;;;;;27.58;12.95;;;;;;;11.15;63.40;101332.09;4977389;28;20030;-88
2022/12/27 02:02:57;;;;;;;22.60;12.13;;;;;;;11.16;63.64;101338.34;4976324;28;20026;-89
2022/12/27 02:05:24;;;;;;;30.65;14.38;;;;;;;11.10;63.34;101330.72;4959631;28;20035;-87
2022/12/27 02:08:16;;;;;;;26.67;13.90;;;;;;;11.00;63.77;101322.44;4977257;28;20027;-87
2022/12/27 02:10:42;;;;;;;29.08;14.75;;;;;;;11.00;63.56;101327.81;4978754;28;20049;-89
2022/12/27 02:13:08;;;;;;;26.17;16.00;;;;;;;10.91;64.18;101318.59;4979417;28;20027;-88
2022/12/27 02:15:33;;;;;;;39.33;12.98;;;;;;;10.78;64.12;101301.59;4992131;28;20050;-87
2022/12/27 02:17:59;;;;;;;27.70;14.18;;;;;;;10.80;63.97;101326.56;4995110;28;20417;-89
2022/12/27 02:20:31;;;;;;;36.33;15.00;;;;;;;10.77;64.30;101326.78;4986710;28;20062;-89
2022/12/27 02:24:02;;;;;;;32.80;13.65;;;;;;;10.76;64.16;101330.41;4959034;28;20026;-89
2022/12/27 02:27:13;;;;;;;27.42;14.30;;;;;;;10.62;64.86;101327.84;4881537;29;20063;-91
2022/12/27 02:29:43;;;;;;;25.85;12.93;;;;;;;10.64;64.80;101325.06;4878847;29;20076;-89
2022/12/27 02:32:35;;;;;;;20.52;12.88;;;;;;;10.66;65.12;101318.59;4878941;29;20052;-88
2022/12/27 02:35:19;;;;;;;29.48;14.40;;;;;;;10.69;64.81;101326.47;4882322;29;20040;-88
2022/12/27 02:38:00;;;;;;;19.15;12.00;;;;;;;10.63;64.89;101302.69;4881369;29;20032;-87
2022/12/27 02:54:51;;;;;;;23.17;12.07;;;;;;;10.74;64.65;101309.97;4878629;29;20040;-88
2022/12/27 02:57:43;;;;;;;31.98;15.80;;;;;;;10.60;64.18;101297.53;4878277;29;20029;-88
2022/12/27 03:03:22;;;;;;;29.25;18.60;;;;;;;10.58;64.40;101304.81;4914708;29;20088;-88
2022/12/27 03:08:56;;;;;;;39.83;17.88;;;;;;;10.49;64.94;101301.94;4976220;28;20037;-88
2022/12/27 03:17:30;;;;;;;27.00;14.23;;;;;;;10.51;64.93;101290.09;4975840;28;20034;-88
2022/12/27 03:25:38;;;;;;;32.97;13.90;;;;;;;10.40;64.89;101284.59;4979406;28;20482;-87
2022/12/27 03:33:49;;;;;;;21.98;12.57;;;;;;;10.59;64.89;101285.03;4973955;28;20057;-88
2022/12/27 03:39:24;;;;;;;24.02;12.38;;;;;;;10.62;64.78;101271.38;4972570;28;20061;-88
2022/12/27 03:44:41;;;;;;;26.23;13.48;;;;;;;10.66;64.63;101280.09;4975476;28;20046;-87
2022/12/27 03:47:30;;;;;;;18.65;10.25;;;;;;;10.60;64.85;101270.63;4974167;28;20066;-88
2022/12/27 03:50:11;;;;;;;17.02;9.65;;;;;;;10.70;64.23;101293.19;4973497;28;20454;-80
2022/12/27 03:52:46;;;;;;;21.40;9.90;;;;;;;10.69;64.70;101286.09;4972216;28;20031;-79
2022/12/27 03:55:12;;;;;;;22.73;11.10;;;;;;;10.64;64.45;101280.19;4972128;28;20026;-80
2022/12/27 03:57:38;;;;;;;16.42;9.18;;;;;;;10.56;64.65;101274.50;4972183;28;20023;-80
2022/12/27 04:00:04;;;;;;;19.80;10.43;;;;;;;10.62;64.55;101278.56;4972228;28;20151;-80
2022/12/27 04:02:30;;;;;;;19.20;10.05;;;;;;;10.55;64.56;101274.63;4972121;28;20019;-81
2022/12/27 04:04:55;;;;;;;21.15;11.40;;;;;;;10.49;64.85;101270.50;4971938;28;20027;-81
2022/12/27 04:07:21;;;;;;;21.77;11.65;;;;;;;10.52;64.60;101262.22;4972103;28;20058;-81
2022/12/27 04:37:06;;;;;;;15.68;9.40;;;;;;;10.77;63.70;101246.06;4972486;28;20058;-87
2022/12/27 04:39:32;;;;;;;20.30;10.30;;;;;;;10.64;63.26;101239.00;4973990;28;20089;-86
2022/12/27 04:55:53;;;;;;;22.67;12.98;;;;;;;10.63;63.75;101262.34;4961115;29;20093;-86
2022/12/27 04:58:18;;;;;;;33.58;15.93;;;;;;;10.57;63.52;101260.09;4959982;29;20440;-87
2022/12/27 05:03:28;;;;;;;33.13;18.67;;;;;;;10.42;63.76;101254.94;4966254;29;20050;-86
2022/12/27 05:05:53;;;;;;;41.08;18.25;;;;;;;10.47;63.84;101259.00;4958388;29;20526;-87
2022/12/27 05:14:01;;;;;;;42.28;11.52;;;;;;;10.47;63.71;101253.63;4957722;29;20030;-87
2022/12/27 05:16:33;;;;;;;14.85;9.60;;;;;;;10.56;63.95;101258.34;4957867;29;20030;-87
2022/12/27 05:18:59;;;;;;;18.45;9.35;;;;;;;10.58;63.60;101251.03;4958185;29;20035;-88
2022/12/27 05:21:24;;;;;;;20.90;10.48;;;;;;;10.65;63.32;101257.69;4959071;29;20552;-88
2022/12/27 05:26:34;;;;;;;21.80;10.05;;;;;;;10.75;63.07;101253.38;4966302;29;20046;-88
2022/12/27 05:29:00;;;;;;;16.13;7.20;;;;;;;10.72;62.15;101242.84;4969095;29;20139;-82
2022/12/27 05:31:27;;;;;;;18.13;7.57;;;;;;;10.78;62.63;101253.16;4959167;29;20098;-81
2022/12/27 05:33:53;;;;;;;21.45;7.60;;;;;;;10.79;62.43;101256.72;4956418;29;20035;-86
2022/12/27 05:36:19;;;;;;;21.85;8.35;;;;;;;10.78;62.53;101255.84;4960112;29;20034;-87
2022/12/27 05:38:45;;;;;;;14.18;7.45;;;;;;;10.84;62.38;101251.84;4941760;29;20466;-86
2022/12/27 05:41:11;;;;;;;20.63;8.27;;;;;;;10.88;62.07;101251.53;4959538;29;20027;-87
2022/12/27 05:43:37;;;;;;;20.80;10.98;;;;;;;10.90;62.03;101256.78;4947148;29;20095;-89
2022/12/27 05:46:09;;;;;;;17.23;9.80;;;;;;;10.83;62.02;101259.06;4947606;28;20107;-85
2022/12/27 05:48:35;;;;;;;18.15;9.63;;;;;;;10.88;62.18;101265.00;4957580;28;20041;-84
2022/12/27 05:51:19;;;;;;;17.05;8.55;;;;;;;10.82;61.59;101243.88;4956315;28;20039;-84
2022/12/27 05:53:46;;;;;;;19.17;10.15;;;;;;;10.89;61.70;101247.84;4958042;28;20057;-88
2022/12/27 05:56:18;;;;;;;24.38;12.50;;;;;;;10.91;61.72;101247.75;4940521;28;20479;-91
2022/12/27 05:58:44;;;;;;;24.38;11.02;;;;;;;10.83;62.04;101245.59;4939252;29;20410;-81
2022/12/27 06:01:12;;;;;;;28.25;13.50;;;;;;;10.84;61.86;101235.72;4957516;28;20063;-82
2022/12/27 06:03:38;;;;;;;24.55;12.82;;;;;;;10.92;61.61;101250.31;4954820;28;20050;-85
2022/12/27 06:06:04;;;;;;;26.65;12.73;;;;;;;10.90;61.57;101236.13;4954948;28;20182;-85
2022/12/27 06:08:30;;;;;;;26.30;13.57;;;;;;;10.91;61.59;101245.94;4955840;28;20038;-83
2022/12/27 06:11:03;;;;;;;27.33;14.65;;;;;;;10.96;61.68;101252.78;4955372;28;20029;-78
2022/12/27 06:13:29;;;;;;;34.20;13.48;;;;;;;10.92;61.44;101231.47;4954156;28;20032;-80
2022/12/27 06:15:58;;;;;;;35.88;14.25;;;;;;;10.98;61.77;101256.25;4954089;28;20505;-81
2022/12/27 06:18:23;;;;;;;19.65;12.50;;;;;;;10.90;61.51;101254.97;4968357;28;20038;-78
2022/12/27 06:20:48;;;;;;;35.40;13.30;;;;;;;10.89;61.73;101255.06;4972341;28;20112;-79
2022/12/27 06:23:14;;;;;;;32.17;16.15;;;;;;;10.65;61.96;101254.13;4972414;28;20482;-78
2022/12/27 06:25:39;;;;;;;61.00;16.23;;;;;;;10.69;62.00;101247.56;4972617;28;20053;-79
2022/12/27 06:28:05;;;;;;;21.95;14.60;;;;;;;10.77;62.12;101261.31;4972351;28;20041;-80
2022/12/27 06:30:30;;;;;;;34.60;16.25;;;;;;;10.68;62.26;101241.34;4977029;28;20402;-81
2022/12/27 06:32:55;;;;;;;37.13;15.65;;;;;;;10.81;62.19;101254.75;4980823;28;20565;-81
2022/12/27 06:35:21;;;;;;;38.95;16.40;;;;;;;10.72;62.18;101237.47;4981117;28;20030;-89
2022/12/27 06:37:46;;;;;;;30.85;15.18;;;;;;;10.77;62.11;101250.56;4973704;28;20035;-83
2022/12/27 06:40:12;;;;;;;30.30;15.40;;;;;;;10.87;62.43;101255.19;4996729;28;20042;-84
2022/12/27 06:42:37;;;;;;;32.97;17.05;;;;;;;10.82;61.95;101238.50;4992677;28;20041;-83
2022/12/27 06:45:05;;;;;;;38.97;18.98;;;;;;;10.91;62.07;101259.38;4990008;28;20045;-90
2022/12/27 06:47:31;;;;;;;27.45;16.50;;;;;;;10.95;62.20;101259.16;4974819;28;20121;-82
2022/12/27 06:49:56;;;;;;;40.17;18.67;;;;;;;10.84;62.40;101263.47;4983568;28;20051;-83
2022/12/27 06:52:22;;;;;;;36.22;19.40;;;;;;;10.77;62.29;101262.19;4975035;28;20023;-81
2022/12/27 06:54:47;;;;;;;49.10;22.52;;;;;;;10.69;62.52;101264.59;4971798;28;20031;-79
2022/12/27 06:57:13;;;;;;;41.38;23.38;;;;;;;10.59;62.27;101263.50;4971347;28;20035;-80
2022/12/27 06:59:39;;;;;;;50.80;25.88;;;;;;;10.45;62.85;101250.19;4971753;28;20493;-79
2022/12/27 07:02:04;;;;;;;47.70;28.30;;;;;;;10.46;63.03;101269.88;4973152;28;20031;-86
2022/12/27 07:04:30;;;;;;;51.40;30.88;;;;;;;9.97;64.26;101254.44;4973630;28;20121;-84
2022/12/27 07:06:55;;;;;;;65.25;34.15;;;;;;;10.14;64.45;101262.25;4971701;28;20027;-81
2022/12/27 07:09:21;;;;;;;66.93;37.15;;;;;;;10.26;64.43;101273.97;4971916;28;20035;-83
2022/12/27 07:11:46;;;;;;;67.28;37.65;;;;;;;10.31;63.92;101261.91;4972203;28;20031;-83
2022/12/27 07:14:12;;;;;;;69.63;37.97;;;;;;;10.22;63.73;101249.13;4971474;28;20034;-83
2022/12/27 07:16:37;;;;;;;70.47;38.80;;;;;;;10.14;63.86;101239.88;4971483;28;20223;-87
2022/12/27 07:19:03;;;;;;;73.32;40.10;;;;;;;10.19;63.79;101256.53;4973818;28;20030;-86
2022/12/27 07:21:28;;;;;;;74.93;38.55;;;;;;;10.10;64.16;101249.94;4975424;28;20034;-83
2022/12/27 07:23:54;;;;;;;68.00;39.45;;;;;;;10.14;64.27;101250.63;4974615;28;20114;-82
2022/12/27 07:26:24;;;;;;;76.68;38.63;;;;;;;9.98;64.67;101249.94;4973518;28;20033;-82
2022/12/27 07:28:52;;;;;;;69.55;39.33;;;;;;;10.04;64.85;101252.19;4974026;28;20031;-86
2022/12/27 07:31:19;;;;;;;65.45;37.95;;;;;;;9.87;65.28;101236.38;4974271;28;20498;-85
2022/12/27 07:33:45;;;;;;;70.45;35.85;;;;;;;9.80;65.02;101236.81;4986663;28;20037;-86
2022/12/27 07:36:24;;;;;;;73.55;36.33;;;;;;;9.98;65.50;101250.78;4988008;28;20030;-85
2022/12/27 07:38:50;;;;;;;72.30;36.30;;;;;;;10.11;65.58;101249.00;4978630;28;20402;-86
2022/12/27 07:41:15;;;;;;;71.07;33.42;;;;;;;10.16;65.06;101254.94;4973424;28;20038;-82
2022/12/27 07:43:43;;;;;;;56.83;30.30;;;;;;;10.15;65.09;101249.66;4973211;28;20405;-84
2022/12/27 07:46:17;;;;;;;64.13;27.75;;;;;;;10.29;65.13;101246.88;4955662;28;20477;-81
2022/12/27 07:48:42;;;;;;;53.90;25.20;;;;;;;10.46;64.71;101251.06;4968831;28;20039;-81
2022/12/27 07:51:08;;;;;;;44.65;23.85;;;;;;;10.47;64.43;101248.25;4972584;28;20409;-79
2022/12/27 07:53:35;;;;;;;35.58;19.15;;;;;;;10.64;64.11;101255.97;4954393;28;20118;-80
2022/12/27 07:56:15;;;;;;;49.28;21.88;;;;;;;10.79;63.89;101252.16;4971616;28;20129;-82
2022/12/27 07:58:44;;;;;;;33.33;16.65;;;;;;;10.86;62.75;101237.31;4971756;28;20031;-80
2022/12/27 08:01:11;;;;;;;38.25;16.30;;;;;;;10.97;62.37;101243.75;4971200;28;20142;-79
2022/12/27 08:03:38;;;;;;;48.63;18.00;;;;;;;11.11;62.29;101248.97;4971406;28;20030;-78
2022/12/27 08:06:04;;;;;;;42.13;16.33;;;;;;;11.26;61.76;101247.81;4971303;28;20030;-76
2022/12/27 08:08:41;;;;;;;43.25;19.05;;;;;;;11.33;61.11;101243.72;4971079;28;20035;-78
2022/12/27 08:11:07;;;;;;;39.67;18.33;;;;;;;11.49;60.64;101244.28;4971378;28;20069;-78
2022/12/27 08:13:33;;;;;;;45.20;17.45;;;;;;;11.54;60.69;101247.50;4972577;28;20058;-88
2022/12/27 08:15:59;;;;;;;48.97;19.92;;;;;;;11.62;60.90;101250.44;4972721;28;20494;-81
2022/12/27 08:18:25;;;;;;;44.83;20.15;;;;;;;11.68;60.07;101239.22;4973608;28;20184;-87
2022/12/27 08:20:50;;;;;;;54.00;20.48;;;;;;;11.75;60.27;101235.09;4959512;28;20027;-85
2022/12/27 08:23:16;;;;;;;52.08;22.45;;;;;;;11.88;60.18;101238.59;4973258;28;20046;-86
2022/12/27 08:25:42;;;;;;;48.30;22.98;;;;;;;12.08;60.07;101237.03;4973791;28;20409;-83
2022/12/27 08:28:11;;;;;;;68.70;25.92;;;;;;;12.09;59.81;101233.34;4976491;28;20042;-85
2022/12/27 08:30:38;;;;;;;59.70;28.05;;;;;;;12.33;59.78;101246.75;4982178;28;20089;-84
2022/12/27 08:33:04;;;;;;;60.90;31.90;;;;;;;12.33;59.50;101220.63;4980060;28;20054;-85
2022/12/27 08:35:30;;;;;;;72.40;33.03;;;;;;;12.58;59.56;101235.75;4981635;28;20499;-83
2022/12/27 08:37:55;;;;;;;65.47;35.25;;;;;;;12.63;59.01;101233.53;4984833;28;20149;-84
2022/12/27 08:40:21;;;;;;;66.78;32.80;;;;;;;12.61;58.78;101230.09;4982108;28;20034;-85
2022/12/27 08:42:47;;;;;;;65.65;32.13;;;;;;;12.52;59.16;101222.75;4958720;28;20038;-84
2022/12/27 08:45:13;;;;;;;75.85;39.88;;;;;;;12.74;58.81;101225.44;4973958;28;20027;-83
2022/12/27 08:47:39;;;;;;;89.93;47.72;;;;;;;12.85;58.83;101224.53;4975115;28;20035;-81
2022/12/27 08:50:06;;;;;;;76.18;42.65;;;;;;;12.92;58.79;101221.25;4975251;28;20034;-79
2022/12/27 08:52:32;;;;;;;95.10;42.28;;;;;;;12.99;58.80;101217.06;4974745;28;20387;-83
2022/12/27 08:54:57;;;;;;;80.00;45.47;;;;;;;13.07;58.91;101211.00;4975520;28;20062;-83
2022/12/27 08:57:23;;;;;;;94.95;49.40;;;;;;;13.12;58.90;101200.72;4957930;28;20027;-81
2022/12/27 08:59:48;;;;;;;107.15;50.13;;;;;;;12.98;59.13;101200.97;4974999;28;20082;-80
2022/12/27 09:02:14;;;;;;;87.15;46.97;;;;;;;13.03;58.77;101214.94;4974834;28;20113;-82
2022/12/27 09:04:39;;;;;;;69.82;42.55;;;;;;;12.97;59.03;101215.44;4975791;28;20045;-79
2022/12/27 09:07:05;;;;;;;68.35;39.83;;;;;;;12.70;59.77;101210.47;4975192;28;20106;-82
2022/12/27 09:09:30;;;;;;;75.68;38.92;;;;;;;12.74;59.94;101211.94;4958670;28;20037;-85
2022/12/27 09:11:56;;;;;;;69.40;38.47;;;;;;;12.73;59.95;101196.72;4975680;28;20030;-82
2022/12/27 09:14:21;;;;;;;65.45;35.63;;;;;;;12.81;59.90;101188.84;4975451;28;20030;-82
2022/12/27 09:16:47;;;;;;;66.20;32.42;;;;;;;12.96;58.98;101192.16;4975532;28;20030;-82
2022/12/27 09:19:12;;;;;;;77.90;32.42;;;;;;;13.18;59.31;101185.88;4975709;28;20037;-81
2022/12/27 09:21:40;;;;;;;49.72;23.30;;;;;;;13.34;58.66;101186.28;4975174;28;20031;-80
2022/12/27 09:24:06;;;;;;;44.50;21.92;;;;;;;13.50;57.23;101181.31;4975304;28;20022;-82
2022/12/27 09:26:32;;;;;;;51.08;19.63;;;;;;;13.60;56.60;101171.44;4975005;28;20030;-83
2022/12/27 09:28:58;;;;;;;46.67;17.10;;;;;;;13.79;55.89;101170.72;4975173;28;20039;-83
2022/12/27 09:31:25;;;;;;;33.30;15.15;;;;;;;13.95;55.03;101171.94;4975879;28;20023;-83
2022/12/27 09:33:51;;;;;;;29.23;16.80;;;;;;;14.08;54.21;101164.47;4975165;28;20034;-83
2022/12/27 09:36:23;;;;;;;28.52;15.10;;;;;;;14.00;54.00;101148.09;4976975;28;20030;-83
2022/12/27 09:38:51;;;;;;;37.50;16.20;;;;;;;14.23;53.81;101154.16;4984475;28;20031;-83
2022/12/27 09:41:39;;;;;;;35.28;14.90;;;;;;;14.27;52.66;101154.75;4978046;28;20039;-83
2022/12/27 09:44:18;;;;;;;39.00;15.88;;;;;;;14.30;52.15;101138.25;4975349;28;20049;-84
2022/12/27 09:46:57;;;;;;;26.85;15.07;;;;;;;14.47;52.46;101151.16;4952945;28;20517;-81
2022/12/27 09:49:31;;;;;;;34.72;15.98;;;;;;;14.49;51.83;101146.47;4953619;28;20059;-83
2022/12/27 09:52:09;;;;;;;33.92;16.17;;;;;;;14.63;51.73;101140.66;4952695;28;20070;-82
2022/12/27 09:54:55;;;;;;;23.58;15.50;;;;;;;14.67;51.65;101148.38;4953165;28;20027;-83
2022/12/27 09:57:26;;;;;;;35.38;14.88;;;;;;;14.76;51.68;101127.75;4954241;28;20105;-82
2022/12/27 09:59:57;;;;;;;28.48;15.20;;;;;;;14.90;51.64;101129.16;4953426;28;20054;-82
2022/12/27 10:02:28;;;;;;;27.90;15.65;;;;;;;15.02;51.51;101128.91;4953046;28;20688;-83
2022/12/27 10:04:56;;;;;;;33.35;14.32;;;;;;;15.02;51.15;101123.47;4953031;28;20118;-83
2022/12/27 10:07:30;;;;;;;30.40;14.48;;;;;;;15.25;51.08;101126.78;4952659;28;20109;-83
2022/12/27 10:10:37;;;;;;;30.92;13.65;;;;;;;15.31;50.89;101130.78;4952603;28;20402;-81
2022/12/27 10:13:20;;;;;;;26.80;12.35;;;;;;;15.31;50.92;101122.66;4895847;29;20052;-83
2022/12/27 10:16:07;;;;;;;25.92;13.13;;;;;;;15.35;50.85;101099.69;4896684;29;20028;-83
2022/12/27 10:18:48;;;;;;;24.65;10.88;;;;;;;15.30;50.68;101097.41;4911917;29;20515;-82
2022/12/27 10:21:25;;;;;;;29.83;12.77;;;;;;;15.37;50.68;101097.69;4915108;29;20087;-81
2022/12/27 10:23:59;;;;;;;33.88;12.30;;;;;;;15.37;50.64;101103.09;4914367;29;20051;-84
2022/12/27 10:26:25;;;;;;;36.67;11.80;;;;;;;15.54;50.75;101099.69;4914497;29;20381;-82
2022/12/27 10:28:58;;;;;;;24.08;11.25;;;;;;;15.60;50.39;101085.53;4898571;29;20113;-83
2022/12/27 10:31:25;;;;;;;24.15;12.20;;;;;;;15.58;50.10;101082.13;4914692;29;20092;-82
2022/12/27 10:33:51;;;;;;;19.48;11.18;;;;;;;15.61;50.19;101084.53;4898848;29;20123;-82
2022/12/27 10:36:26;;;;;;;27.33;12.57;;;;;;;15.76;50.02;101080.38;4915151;29;20048;-82
2022/12/27 10:38:52;;;;;;;20.20;10.95;;;;;;;15.70;50.02;101079.09;4917355;29;20238;-82
2022/12/27 10:42:11;;;;;;;23.20;12.88;;;;;;;15.76;49.93;101080.38;4925307;29;20016;-84
2022/12/27 10:44:37;;;;;;;23.25;13.57;;;;;;;15.71;50.23;101069.97;4864153;29;20073;-83
2022/12/27 10:47:02;;;;;;;37.10;15.63;;;;;;;15.65;50.26;101073.28;4859710;29;20058;-83
2022/12/27 10:49:33;;;;;;;23.75;13.95;;;;;;;15.68;50.39;101064.00;4863790;29;20036;-82
2022/12/27 10:52:21;;;;;;;33.25;15.00;;;;;;;15.79;50.49;101058.38;4902664;29;20052;-82
2022/12/27 10:54:51;;;;;;;27.08;12.68;;;;;;;15.83;50.47;101054.38;4896900;29;20032;-81
2022/12/27 10:57:27;;;;;;;30.33;14.77;;;;;;;15.93;50.21;101047.03;4895837;29;20187;-83
2022/12/27 11:00:22;;;;;;;40.10;21.38;;;;;;;16.02;50.06;101040.75;4894738;29;20188;-82
2022/12/27 11:03:01;;;;;;;33.45;19.98;;;;;;;16.06;49.82;101043.97;4838851;29;20514;-82
2022/12/27 11:05:29;;;;;;;26.38;13.23;;;;;;;16.08;49.74;101028.44;4823903;29;20137;-81
2022/12/27 11:07:55;;;;;;;25.58;13.98;;;;;;;16.16;50.04;101029.38;4838576;29;20086;-83
2022/12/27 11:10:24;;;;;;;21.40;14.20;;;;;;;16.23;49.69;101016.91;4839043;29;20034;-82
2022/12/27 11:12:58;;;;;;;24.05;12.18;;;;;;;16.50;49.68;101024.19;4838250;29;20105;-82
2022/12/27 11:15:26;;;;;;;35.30;13.65;;;;;;;16.56;49.50;101006.44;4823495;29;20042;-83
2022/12/27 11:18:03;;;;;;;51.20;14.40;;;;;;;16.85;49.05;101013.34;4862552;29;20655;-82
2022/12/27 11:20:36;;;;;;;27.15;14.15;;;;;;;17.04;49.11;100993.31;4912564;29;20036;-81
2022/12/27 11:23:09;;;;;;;29.38;12.88;;;;;;;17.37;48.19;101008.84;4913109;29;20039;-83
2022/12/27 11:25:45;;;;;;;30.65;12.90;;;;;;;17.46;47.85;101000.75;4912620;29;20040;-82
2022/12/27 11:28:46;;;;;;;20.48;11.85;;;;;;;17.73;47.43;101004.19;4912750;29;20032;-83
2022/12/27 11:31:14;;;;;;;30.15;12.60;;;;;;;17.90;47.08;101008.69;4837993;29;20046;-83
2022/12/27 11:33:49;;;;;;;25.80;12.68;;;;;;;17.97;46.80;100995.28;4837873;29;20077;-82
2022/12/27 11:36:31;;;;;;;21.25;11.23;;;;;;;18.04;46.53;100980.00;4838696;29;20045;-82
2022/12/27 11:38:59;;;;;;;;;;;;;;;18.00;46.25;100984.06;4854098;29;20176;-82
2022/12/27 11:41:46;;;;;;;22.40;10.02;;;;;;;17.95;46.46;100992.72;4875689;29;19916;-83
2022/12/27 11:44:37;;;;;;;23.00;10.10;;;;;;;18.00;46.21;100967.75;4884605;29;20033;-81
2022/12/27 11:47:21;;;;;;;19.27;10.25;;;;;;;18.13;46.36;100978.19;4884058;29;20057;-82
2022/12/27 11:50:12;;;;;;;17.25;10.15;;;;;;;18.06;46.13;100964.38;4875326;29;20037;-80
2022/12/27 11:52:51;;;;;;;21.42;10.60;;;;;;;18.17;46.00;100980.38;4875070;29;20064;-82
2022/12/27 11:55:32;;;;;;;30.40;12.48;;;;;;;18.21;46.11;100970.03;4874666;29;20033;-83
2022/12/27 11:58:21;;;;;;;28.40;12.65;;;;;;;18.15;46.54;100974.25;4875148;29;20049;-84
2022/12/27 12:01:26;;;;;;;30.98;13.48;;;;;;;18.31;46.14;100970.75;4875013;29;20052;-84
2022/12/27 12:04:25;;;;;;;24.88;12.20;;;;;;;18.32;46.27;100965.09;4874717;29;20033;-83
2022/12/27 12:07:06;;;;;;;38.97;18.08;;;;;;;18.26;46.25;100965.78;4881786;28;20416;-82
2022/12/27 12:09:44;;;;;;;39.70;17.70;;;;;;;18.27;46.46;100966.63;4972054;28;20546;-83
2022/12/27 12:12:55;;;;;;;33.20;16.95;;;;;;;18.33;46.41;100969.56;4972588;28;20026;-83
2022/12/27 12:15:43;;;;;;;39.78;17.77;;;;;;;18.23;46.72;100951.63;4972176;28;20119;-82
2022/12/27 12:18:53;;;;;;;35.60;18.85;;;;;;;18.34;46.67;100960.38;4971490;28;20078;-83
2022/12/27 12:21:25;;;;;;;34.38;17.63;;;;;;;18.26;47.17;100957.59;4910966;29;20046;-82
2022/12/27 12:24:32;;;;;;;35.80;16.27;;;;;;;18.35;46.96;100956.59;4911560;29;20044;-84
2022/12/27 12:27:18;;;;;;;33.97;15.50;;;;;;;18.38;46.98;100939.94;4911620;29;20039;-82
2022/12/27 12:29:49;;;;;;;30.45;14.65;;;;;;;18.50;47.03;100948.66;4911122;29;20032;-83
2022/12/27 12:32:23;;;;;;;27.85;15.68;;;;;;;18.64;46.81;100960.78;4912007;29;20079;-82
2022/12/27 12:34:54;;;;;;;36.72;13.85;;;;;;;18.68;46.66;100962.16;4910989;29;20036;-83
2022/12/27 12:37:31;;;;;;;20.23;10.15;;;;;;;18.73;46.28;100960.63;4911518;29;20040;-83
2022/12/27 12:40:15;;;;;;;13.68;7.28;;;;;;;18.74;46.41;100961.47;4912209;29;20040;-83
2022/12/27 12:43:10;;;;;;;21.73;7.22;;;;;;;18.85;46.13;100959.25;4912352;29;20043;-83
2022/12/27 12:46:02;;;;;;;16.98;7.03;;;;;;;18.97;46.00;100957.03;4914981;29;20060;-82
2022/12/27 12:49:05;;;;;;;23.88;5.85;;;;;;;18.96;45.77;100950.72;4845302;29;20049;-83
2022/12/27 12:51:49;;;;;;;46.78;6.15;;;;;;;18.92;46.26;100973.06;4786010;29;20060;-82
2022/12/27 12:54:52;;;;;;;46.33;5.03;;;;;;;18.68;46.76;100973.06;4782760;29;20496;-82
2022/12/27 12:57:49;;;;;;;33.15;5.75;;;;;;;18.46;47.51;100969.94;4808811;29;20053;-82
2022/12/27 13:00:27;;;;;;;49.63;7.60;;;;;;;18.38;47.72;100956.28;4815824;29;20031;-83
2022/12/27 13:03:28;;;;;;;21.75;5.10;;;;;;;18.27;48.43;100972.09;4818615;29;20529;-84
2022/12/27 13:06:08;;;;;;;20.80;5.38;;;;;;;18.09;48.88;100966.75;4818461;29;20037;-83